createdAt,value
2022-08-03T00:04:41.286Z,50.28
2022-08-03T00:09:35.531Z,50.78
2022-08-03T00:14:36.671Z,51.11
2022-08-03T00:19:30.146Z,51.02
2022-08-03T00:24:24.823Z,51.38
2022-08-03T00:29:18.253Z,51.40
2022-08-03T00:34:14.944Z,51.12
2022-08-03T00:39:10.249Z,50.80
2022-08-03T00:44:05.513Z,50.71
2022-08-03T00:48:58.875Z,50.61
2022-08-03T00:53:52.781Z,50.66
2022-08-03T00:58:48.649Z,50.68
2022-08-03T01:03:43.809Z,50.65
2022-08-03T01:08:45.818Z,50.54
2022-08-03T01:14:02.079Z,50.99
2022-08-03T01:19:13.691Z,51.23
2022-08-03T01:24:23.249Z,51.04
2022-08-03T01:29:46.543Z,51.45
2022-08-03T01:34:49.888Z,52.04
2022-08-03T01:39:47.866Z,52.65
2022-08-03T01:44:44.053Z,53.18
2022-08-03T01:49:41.428Z,53.17
2022-08-03T01:54:38.082Z,53.16
2022-08-03T01:59:37.785Z,52.90
2022-08-03T02:04:31.819Z,52.94
2022-08-03T02:09:26.549Z,52.72
2022-08-03T02:14:22.238Z,52.33
2022-08-03T02:19:17.867Z,52.36
2022-08-03T02:24:12.289Z,52.36
2022-08-03T02:29:16.780Z,52.83
2022-08-03T02:34:15.481Z,53.72
2022-08-03T02:39:12.895Z,54.21
2022-08-03T02:44:10.570Z,55.34
2022-08-03T02:49:49.759Z,56.12
2022-08-03T02:54:21.285Z,56.83
2022-08-03T02:59:16.229Z,57.92
2022-08-03T03:04:12.175Z,58.57
2022-08-03T03:09:13.495Z,58.55
2022-08-03T03:14:33.672Z,59.18
2022-08-03T03:19:33.748Z,59.05
2022-08-03T03:24:34.948Z,58.27
2022-08-03T03:29:32.048Z,57.80
2022-08-03T03:34:33.380Z,57.53
2022-08-03T03:39:26.807Z,57.03
2022-08-03T03:44:23.374Z,58.06
2022-08-03T03:49:19.508Z,60.05
2022-08-03T03:54:13.255Z,60.92
2022-08-03T03:59:09.854Z,62.07
2022-08-03T04:04:23.365Z,62.51
2022-08-03T04:09:36.001Z,62.48
2022-08-03T04:14:34.229Z,63.28
2022-08-03T04:19:32.006Z,63.92
2022-08-03T04:24:32.043Z,64.26
2022-08-03T04:29:27.482Z,64.59
2022-08-03T04:34:21.060Z,63.80
2022-08-03T04:39:19.520Z,63.63
2022-08-03T04:44:18.468Z,63.13
2022-08-03T04:49:12.391Z,57.00
2022-08-03T04:54:07.372Z,55.21
2022-08-03T04:59:00.981Z,52.30
2022-08-03T05:03:55.669Z,50.79
2022-08-03T05:08:49.057Z,49.55
2022-08-03T05:13:44.266Z,48.60
2022-08-03T05:18:41.693Z,48.51
2022-08-03T05:23:39.316Z,48.28
2022-08-03T05:28:50.829Z,46.91
2022-08-03T05:33:44.979Z,46.49
2022-08-03T05:38:48.487Z,45.78
2022-08-03T05:43:45.812Z,45.96
2022-08-03T05:48:40.043Z,46.00
2022-08-03T05:53:42.035Z,45.05
2022-08-03T05:58:35.481Z,44.23
2022-08-03T06:03:34.003Z,43.84
2022-08-03T06:08:27.771Z,43.76
2022-08-03T06:13:25.694Z,42.79
2022-08-03T06:18:24.444Z,41.66
2022-08-03T06:23:53.277Z,40.77
2022-08-03T06:28:51.779Z,40.59
2022-08-03T06:46:13.224Z,38.11
2022-08-03T06:52:45.098Z,36.99
2022-08-03T06:57:54.149Z,36.50
2022-08-03T07:09:43.029Z,36.29
2022-08-03T07:15:55.099Z,36.31
2022-08-03T07:20:32.231Z,35.90
2022-08-03T07:25:28.550Z,35.97
2022-08-03T07:30:22.118Z,36.22
2022-08-03T07:35:24.835Z,35.60
2022-08-03T07:40:20.478Z,34.76
2022-08-03T07:45:17.013Z,35.54
2022-08-03T07:50:49.478Z,35.95
2022-08-03T07:56:12.171Z,35.62
2022-08-03T08:01:26.035Z,35.82
2022-08-03T08:06:19.938Z,35.06
2022-08-03T08:11:29.782Z,34.34
2022-08-03T08:16:24.620Z,34.22
2022-08-03T08:21:20.014Z,33.55
2022-08-03T08:26:18.133Z,31.76
2022-08-03T08:31:22.158Z,30.88
2022-08-03T08:36:22.500Z,30.05
2022-08-03T08:47:32.284Z,27.12
2022-08-03T08:52:49.593Z,26.99
2022-08-03T08:57:49.469Z,26.88
2022-08-03T09:02:46.680Z,26.17
2022-08-03T09:07:40.680Z,25.53
2022-08-03T09:12:47.363Z,25.53
2022-08-03T09:17:50.644Z,25.55
2022-08-03T09:22:58.138Z,25.85
2022-08-03T09:27:51.605Z,26.13
2022-08-03T09:32:46.821Z,26.00
2022-08-03T09:38:13.528Z,25.77
2022-08-03T09:43:03.857Z,25.26
2022-08-03T09:48:00.072Z,26.15
2022-08-03T09:53:00.230Z,25.99
2022-08-03T09:57:53.877Z,26.33
2022-08-03T10:02:50.688Z,26.24
2022-08-03T10:07:48.765Z,26.21
2022-08-03T10:12:42.742Z,26.51
2022-08-03T10:17:40.057Z,26.96
2022-08-03T10:22:35.544Z,26.37
2022-08-03T10:27:36.013Z,25.14
2022-08-03T10:32:32.280Z,25.30
2022-08-03T10:37:28.299Z,24.43
2022-08-03T10:42:28.466Z,23.85
2022-08-03T10:47:24.056Z,22.61
2022-08-03T10:52:41.330Z,21.85
2022-08-03T10:57:48.814Z,21.58
2022-08-03T11:03:10.280Z,20.71
2022-08-03T11:08:37.903Z,20.66
2022-08-03T11:13:34.206Z,20.47
2022-08-03T11:18:34.616Z,19.35
2022-08-03T11:24:04.631Z,18.96
2022-08-03T11:29:30.864Z,18.01
2022-08-03T11:34:27.106Z,18.74
2022-08-03T11:39:22.804Z,18.43
2022-08-03T11:44:49.283Z,17.97
2022-08-03T11:49:47.759Z,17.73
2022-08-03T11:54:43.902Z,16.87
2022-08-03T11:59:38.901Z,17.38
2022-08-03T12:04:32.223Z,19.51
2022-08-03T12:09:27.190Z,20.91
2022-08-03T12:14:49.050Z,22.58
2022-08-03T12:19:44.786Z,22.47
2022-08-03T12:24:49.265Z,20.91
2022-08-03T12:29:42.755Z,19.50
2022-08-03T12:34:51.776Z,17.93
2022-08-03T12:40:00.597Z,16.49
2022-08-03T12:44:59.808Z,15.51
2022-08-03T12:49:56.707Z,15.33
2022-08-03T12:54:58.272Z,15.40
2022-08-03T12:59:56.052Z,15.22
2022-08-03T13:04:50.980Z,16.65
2022-08-03T13:09:49.667Z,17.47
2022-08-03T13:14:45.688Z,16.97
2022-08-03T13:19:50.142Z,16.18
2022-08-03T13:24:44.926Z,15.55
2022-08-03T13:29:38.412Z,15.25
2022-08-03T13:34:34.563Z,14.51
2022-08-03T13:39:32.432Z,14.62
2022-08-03T13:44:29.123Z,14.10
2022-08-03T13:49:22.904Z,13.94
2022-08-03T13:54:20.908Z,13.98
2022-08-03T13:59:36.755Z,13.40
2022-08-03T14:04:30.459Z,13.89
2022-08-03T14:15:38.338Z,12.61
2022-08-03T14:20:38.798Z,13.06
2022-08-03T14:25:51.493Z,14.30
2022-08-03T14:32:09.188Z,14.59
2022-08-03T14:36:36.578Z,14.21
2022-08-03T14:42:01.173Z,13.76
2022-08-03T14:46:54.550Z,14.55
2022-08-03T14:51:51.480Z,15.65
2022-08-03T14:56:48.780Z,16.93
2022-08-03T15:02:05.054Z,18.05
2022-08-03T15:06:55.589Z,18.41
2022-08-03T15:17:35.144Z,19.44
2022-08-03T15:22:34.423Z,19.89
2022-08-03T15:27:30.591Z,20.37
2022-08-03T15:32:26.529Z,20.67
2022-08-03T15:37:20.923Z,20.67
2022-08-03T15:42:14.156Z,21.11
2022-08-03T15:47:09.446Z,20.62
2022-08-03T15:52:04.358Z,20.70
2022-08-03T15:56:57.571Z,21.55
2022-08-03T16:01:50.929Z,21.32
2022-08-03T16:06:45.551Z,21.58
2022-08-03T16:11:38.724Z,21.58
2022-08-03T16:16:35.362Z,21.62
2022-08-03T16:21:28.572Z,21.58
2022-08-03T16:26:28.049Z,21.79
2022-08-03T16:31:27.325Z,21.46
2022-08-03T16:36:20.674Z,22.27
2022-08-03T16:41:13.959Z,21.90
2022-08-03T16:46:08.726Z,22.31
2022-08-03T16:51:03.023Z,22.43
2022-08-03T16:55:56.272Z,22.43
2022-08-03T17:00:51.141Z,22.87
2022-08-03T17:05:47.993Z,23.12
2022-08-03T17:10:45.288Z,22.84
2022-08-03T17:15:57.813Z,23.22
2022-08-03T17:20:56.236Z,23.49
2022-08-03T17:26:01.832Z,23.95
2022-08-03T17:31:31.537Z,24.41
2022-08-03T17:36:47.722Z,24.15
2022-08-03T17:41:50.221Z,24.52
2022-08-03T17:46:44.030Z,24.58
2022-08-03T17:51:50.001Z,25.10
2022-08-03T17:56:56.514Z,24.95
2022-08-03T18:02:29.946Z,25.16
2022-08-03T18:07:41.026Z,25.06
2022-08-03T18:12:48.066Z,25.39
2022-08-03T18:17:55.766Z,25.78
2022-08-03T18:22:57.072Z,25.69
2022-08-03T18:27:54.978Z,26.02
2022-08-03T18:33:01.330Z,26.27
2022-08-03T18:38:10.791Z,26.53
2022-08-03T18:43:12.457Z,26.88
2022-08-03T18:48:16.883Z,26.98
2022-08-03T18:53:20.112Z,27.11
2022-08-03T18:58:21.055Z,27.39
2022-08-03T19:03:20.455Z,27.46
2022-08-03T19:08:28.420Z,27.65
2022-08-03T19:13:30.982Z,27.72
2022-08-03T19:18:30.712Z,28.11
2022-08-03T19:23:33.873Z,28.43
2022-08-03T19:28:29.791Z,28.42
2022-08-03T19:33:29.916Z,28.71
2022-08-03T19:38:28.767Z,28.73
2022-08-03T19:43:33.290Z,29.10
2022-08-03T19:48:54.767Z,29.10
2022-08-03T19:53:55.026Z,29.44
2022-08-03T19:58:53.251Z,29.50
2022-08-03T20:03:53.244Z,29.86
2022-08-03T20:08:51.485Z,30.02
2022-08-03T20:13:51.719Z,30.16
2022-08-03T20:18:45.164Z,30.45
2022-08-03T20:23:41.299Z,30.54
2022-08-03T20:28:58.272Z,30.92
2022-08-03T20:34:05.013Z,31.04
2022-08-03T20:38:58.772Z,31.08
2022-08-03T20:43:54.451Z,31.04
2022-08-03T20:48:49.808Z,31.45
2022-08-03T20:53:59.576Z,31.34
2022-08-03T20:58:56.429Z,31.63
2022-08-03T21:03:55.372Z,31.72
2022-08-03T21:08:54.215Z,31.85
2022-08-03T21:13:53.092Z,32.15
2022-08-03T21:18:52.512Z,32.05
2022-08-03T21:23:49.090Z,32.15
2022-08-03T21:28:47.415Z,32.47
2022-08-03T21:33:47.122Z,32.57
2022-08-03T21:38:43.880Z,32.77
2022-08-03T21:43:41.208Z,32.99
2022-08-03T21:48:40.111Z,33.24
2022-08-03T21:54:04.064Z,35.29
2022-08-03T21:58:51.861Z,37.87
2022-08-03T22:03:53.335Z,38.74
2022-08-03T22:08:48.090Z,38.93
2022-08-03T22:13:43.345Z,39.44
2022-08-03T22:18:39.621Z,39.18
2022-08-03T22:23:36.044Z,37.74
2022-08-03T22:28:31.179Z,37.88
2022-08-03T22:33:27.887Z,38.66
2022-08-03T22:38:22.684Z,38.93
2022-08-03T22:43:15.993Z,39.86
2022-08-03T22:48:09.857Z,40.00
2022-08-03T22:53:03.294Z,40.55
2022-08-03T22:57:57.894Z,40.81
2022-08-03T23:02:53.280Z,41.08
2022-08-03T23:07:47.348Z,41.34
2022-08-03T23:12:42.018Z,41.83
2022-08-03T23:17:57.651Z,42.24
2022-08-03T23:22:51.921Z,42.95
2022-08-03T23:27:46.893Z,43.13
2022-08-03T23:33:02.303Z,43.84
2022-08-03T23:38:04.518Z,43.90
2022-08-03T23:43:16.685Z,43.98
2022-08-03T23:48:24.774Z,44.32
2022-08-03T23:53:23.362Z,44.59
2022-08-03T23:58:32.610Z,44.15
